^^
Saratoga-Weather Station Historical Data
Daily Summary for March 1, 2020 Units:  English    Metric   Both
Daily Weekly Monthly Yearly Custom
  High: Low: Average:
Temperature: 92.5 °F 66.7 °F 78.8 °F
Dew Point: 70.9 °F 55.4 °F 63.7 °F
Humidity: 94% 39% 62%
Wind Speed: 13mph 0mph 2.7mph
Wind Gust: 15mph - -
Wind- - WSW
Pressure: 29.9 in 29.9 in -
Precipitation: 0.23 in    
Historical Graphs
 
 
Tabular Data for March 1, 2020
Time Temperature Dew Point Pressure Wind Wind Speed Wind Gust Humidity Rainfall Rate (Hourly) solar
00:04 74.5 °F 55.8 °F 29.9 in Calm     52% 0 in 0 W/m2
00:09 74.1 °F 55.4 °F 29.9 in Calm     52% 0 in 0 W/m2
00:14 73.9 °F 55.8 °F 29.9 in Calm     53% 0 in 0 W/m2
00:19 73.8 °F 55.6 °F 29.9 in Calm   1 mph 53% 0 in 0 W/m2
00:24 73.8 °F 56.1 °F 29.9 in Calm     54% 0 in 0 W/m2
00:29 73.8 °F 56.7 °F 29.9 in Calm     55% 0 in 0 W/m2
00:34 73.6 °F 55.9 °F 29.9 in Calm     54% 0 in 0 W/m2
00:39 73.4 °F 56.3 °F 29.9 in Calm     55% 0 in 0 W/m2
00:44 73.2 °F 55.6 °F 29.9 in Calm     54% 0 in 0 W/m2
00:49 73 °F 55.9 °F 29.9 in Calm     55% 0 in 0 W/m2
00:54 72.9 °F 56.3 °F 29.9 in Calm     56% 0 in 0 W/m2
00:59 72.9 °F 56.3 °F 29.9 in Calm     56% 0 in 0 W/m2
01:04 72.9 °F 56.3 °F 29.9 in Calm     56% 0 in 0 W/m2
01:09 72.7 °F 55.6 °F 29.9 in Calm     55% 0 in 0 W/m2
01:15 72.7 °F 56.1 °F 29.9 in Calm     56% 0 in 0 W/m2
01:20 72.7 °F 56.1 °F 29.9 in Calm     56% 0 in 0 W/m2
01:25 72.5 °F 56.5 °F 29.9 in Calm     57% 0 in 0 W/m2
01:30 72.3 °F 56.3 °F 29.9 in Calm     57% 0 in 0 W/m2
01:35 72.3 °F 56.3 °F 29.9 in Calm     57% 0 in 0 W/m2
01:45 72.1 °F 56.1 °F 29.9 in Calm     57% 0 in 0 W/m2
01:50 72 °F 56.3 °F 29.9 in Calm     58% 0 in 0 W/m2
01:55 72 °F 56.3 °F 29.9 in Calm     58% 0 in 0 W/m2
02:00 72 °F 56.3 °F 29.9 in Calm     58% 0 in 0 W/m2
02:05 72 °F 56.3 °F 29.9 in Calm     58% 0 in 0 W/m2
02:10 72.1 °F 56.5 °F 29.9 in Calm     58% 0 in 0 W/m2
02:15 72.1 °F 56.5 °F 29.9 in Calm     58% 0 in 0 W/m2
02:20 72.3 °F 56.7 °F 29.9 in Calm     58% 0 in 0 W/m2
02:25 72.5 °F 56.8 °F 29.9 in Calm     58% 0 in 0 W/m2
02:30 72.7 °F 56.5 °F 29.9 in SSE 0.9 mph 1 mph 57% 0 in 0 W/m2
02:35 73 °F 56.5 °F 29.9 in WSW 2 mph 3 mph 56% 0 in 0 W/m2
02:40 73.6 °F 55.9 °F 29.9 in Calm   3 mph 54% 0 in 0 W/m2
02:50 73.9 °F 56.3 °F 29.9 in Calm   3 mph 54% 0 in 0 W/m2
02:55 73.9 °F 56.8 °F 29.9 in WSW 0.9 mph 1 mph 55% 0 in 0 W/m2
03:00 73.8 °F 56.7 °F 29.9 in Calm     55% 0 in 0 W/m2
03:05 73.8 °F 56.7 °F 29.9 in Calm     55% 0 in 0 W/m2
03:10 73.4 °F 56.7 °F 29.9 in Calm     56% 0 in 0 W/m2
03:15 73 °F 56.5 °F 29.9 in Calm     56% 0 in 0 W/m2
03:20 72.9 °F 56.3 °F 29.9 in Calm   1 mph 56% 0 in 0 W/m2
03:25 72.7 °F 56.5 °F 29.9 in WSW 0.9 mph 1 mph 57% 0 in 0 W/m2
03:30 72.5 °F 56.5 °F 29.9 in NW 0.9 mph 3 mph 57% 0 in 0 W/m2
03:35 73.6 °F 56.8 °F 29.9 in West 6 mph 6 mph 56% 0 in 0 W/m2
03:40 76.5 °F 57.6 °F 29.9 in WNW 4.9 mph 12 mph 52% 0 in 0 W/m2
03:45 77.5 °F 57.9 °F 29.9 in WNW 4 mph 9 mph 51% 0 in 0 W/m2
03:50 78.3 °F 58.6 °F 29.9 in West 6 mph 9 mph 51% 0 in 0 W/m2
03:56 78.4 °F 58.8 °F 29.9 in NW 4.9 mph 7 mph 51% 0 in 0 W/m2
04:01 78.4 °F 58.8 °F 29.9 in West 10.1 mph 10 mph 51% 0 in 0 W/m2
04:06 78.4 °F 58.8 °F 29.9 in SW 4.9 mph 7 mph 51% 0 in 0 W/m2
04:16 78.3 °F 59.7 °F 29.9 in West 2 mph 6 mph 53% 0 in 0 W/m2
04:21 78.1 °F 60.1 °F 29.9 in NNW 6 mph 7 mph 54% 0 in 0 W/m2
04:26 78.4 °F 60.4 °F 29.9 in West 0.9 mph 5 mph 54% 0 in 0 W/m2
04:31 78.4 °F 60.4 °F 29.9 in West 2 mph 2 mph 54% 0 in 0 W/m2
04:36 78.1 °F 60.6 °F 29.9 in WNW 2 mph 3 mph 55% 0 in 0 W/m2
04:41 77.7 °F 60.3 °F 29.9 in West 2 mph 2 mph 55% 0 in 0 W/m2
04:46 77.7 °F 60.8 °F 29.9 in West 2.9 mph 5 mph 56% 0 in 0 W/m2
04:51 77.7 °F 60.3 °F 29.9 in NW 2 mph 9 mph 55% 0 in 0 W/m2
04:56 77.9 °F 60.4 °F 29.9 in NNW 2 mph 6 mph 55% 0 in 0 W/m2
05:01 77.9 °F 60.4 °F 29.9 in West 2 mph 9 mph 55% 0 in 0 W/m2
05:07 77.7 °F 60.8 °F 29.9 in West 0.9 mph 4 mph 56% 0 in 0 W/m2
05:12 78.1 °F 61.2 °F 29.9 in West 2.9 mph 9 mph 56% 0 in 0 W/m2
05:17 78.1 °F 61.5 °F 29.9 in WNW 2 mph 4 mph 57% 0 in 0 W/m2
05:22 78.1 °F 61.5 °F 29.9 in WSW 2.9 mph 8 mph 57% 0 in 0 W/m2
05:27 77.7 °F 62.8 °F 29.9 in WNW 2 mph 7 mph 60% 0 in 0 W/m2
05:32 77.5 °F 62.6 °F 29.9 in West 2 mph 3 mph 60% 0 in 0 W/m2
05:37 76.5 °F 65.1 °F 29.9 in NW 4 mph 8 mph 68% 0.09 in 0 W/m2
05:42 73.8 °F 65.3 °F 29.9 in West 4 mph 6 mph 75% 0.2 in 0 W/m2
05:47 71.6 °F 65.1 °F 29.9 in West 2 mph 7 mph 80% 0.22 in 0 W/m2
05:52 70.5 °F 65.1 °F 29.9 in West 4 mph 7 mph 83% 0.23 in 0 W/m2
05:57 70.2 °F 65.5 °F 29.9 in WSW 4.9 mph 7 mph 85% 0.23 in 0 W/m2
06:02 69.6 °F 65.3 °F 29.9 in SSW 2 mph 4 mph 86% 0.23 in 0 W/m2
06:07 69.3 °F 65.5 °F 29.9 in SSE 2.9 mph 4 mph 88% 0.23 in 0 W/m2
06:12 68.9 °F 65.5 °F 29.9 in ESE 2 mph 4 mph 89% 0.23 in 0 W/m2
06:17 68.7 °F 65.7 °F 29.9 in Calm   1 mph 90% 0.23 in 0 W/m2
06:22 68.5 °F 65.8 °F 29.9 in Calm   4 mph 91% 0.23 in 0 W/m2
06:27 68.4 °F 65.7 °F 29.9 in SSW 2 mph 3 mph 91% 0.23 in 0 W/m2
06:32 68.2 °F 65.8 °F 29.9 in SSW 0.9 mph 1 mph 92% 0.23 in 0 W/m2
06:37 67.8 °F 65.5 °F 29.9 in Calm   3 mph 92% 0.1 in 0 W/m2
06:42 67.6 °F 65.3 °F 29.9 in Calm   1 mph 92% 0.02 in 0 W/m2
06:47 67.5 °F 65.1 °F 29.9 in SW 0.9 mph 2 mph 92% 0.01 in 5 W/m2
06:52 67.3 °F 65.1 °F 29.9 in SW 0.9 mph 2 mph 93% 0 in 7 W/m2
06:57 66.9 °F 64.8 °F 29.9 in SW 4 mph 4 mph 93% 0 in 9 W/m2
07:02 66.9 °F 64.8 °F 29.9 in SSW 0.9 mph 3 mph 93% 0 in 12 W/m2
07:07 66.9 °F 64.8 °F 29.9 in WSW 2 mph 2 mph 93% 0 in 16 W/m2
07:12 66.7 °F 64.6 °F 29.9 in WSW 0.9 mph 3 mph 93% 0 in 21 W/m2
07:17 66.9 °F 65.1 °F 29.9 in Calm   2 mph 94% 0 in 30 W/m2
07:23 66.9 °F 65.1 °F 29.9 in SW 0.9 mph 2 mph 94% 0 in 39 W/m2
07:28 67.3 °F 65.5 °F 29.9 in West 0.9 mph 3 mph 94% 0 in 60 W/m2
07:33 67.6 °F 65.5 °F 29.9 in West 2 mph 10 mph 93% 0 in 83 W/m2
07:38 68.7 °F 66 °F 29.9 in WSW 0.9 mph 4 mph 91% 0 in 95 W/m2
07:43 69.1 °F 66 °F 29.9 in NW 2 mph 4 mph 90% 0 in 90 W/m2
07:48 69.4 °F 66 °F 29.9 in SW 0.9 mph 2 mph 89% 0 in 88 W/m2
07:53 69.6 °F 66.6 °F 29.9 in ENE 0.9 mph 4 mph 90% 0 in 58 W/m2
07:58 70.2 °F 66.4 °F 29.9 in SE 0.9 mph 2 mph 88% 0 in 40 W/m2
08:03 70.2 °F 66.7 °F 29.9 in Calm     89% 0 in 30 W/m2
08:08 70 °F 66.9 °F 29.9 in Calm   3 mph 90% 0 in 28 W/m2
08:13 69.6 °F 66.9 °F 29.9 in South 2 mph 2 mph 91% 0 in 30 W/m2
08:18 69.4 °F 67.1 °F 29.9 in SSE 0.9 mph 2 mph 92% 0 in 32 W/m2
08:23 69.3 °F 66.9 °F 29.9 in SSE 2 mph 2 mph 92% 0 in 32 W/m2
08:28 69.3 °F 66.9 °F 29.9 in Calm     92% 0 in 32 W/m2
08:33 69.1 °F 66.9 °F 29.9 in SW 0.9 mph 2 mph 93% 0 in 35 W/m2
08:38 68.9 °F 66.7 °F 29.9 in WSW 0.9 mph 4 mph 93% 0 in 39 W/m2
08:48 68.7 °F 66.9 °F 29.9 in Calm   3 mph 94% 0 in 39 W/m2
08:53 68.7 °F 66.9 °F 29.9 in SW 0.9 mph 2 mph 94% 0 in 37 W/m2
08:58 68.7 °F 66.9 °F 29.9 in Calm   1 mph 94% 0 in 37 W/m2
09:04 68.7 °F 66.9 °F 29.9 in Calm   3 mph 94% 0 in 46 W/m2
09:09 68.7 °F 66.9 °F 29.9 in SSW 0.9 mph 1 mph 94% 0 in 60 W/m2
09:14 68.7 °F 66.9 °F 29.9 in Calm   3 mph 94% 0 in 63 W/m2
09:19 68.9 °F 67.1 °F 29.9 in Calm     94% 0 in 63 W/m2
09:24 68.9 °F 67.1 °F 29.9 in Calm     94% 0 in 60 W/m2
09:29 68.9 °F 67.1 °F 29.9 in SSW 0.9 mph 2 mph 94% 0 in 62 W/m2
09:34 68.7 °F 66.9 °F 29.9 in NW 0.9 mph 2 mph 94% 0 in 69 W/m2
09:39 69.1 °F 66.9 °F 29.9 in West 2 mph 4 mph 93% 0 in 83 W/m2
09:44 69.4 °F 67.1 °F 29.9 in WNW 2 mph 4 mph 92% 0 in 107 W/m2
09:49 70 °F 67.3 °F 29.9 in WNW 2 mph 3 mph 91% 0 in 132 W/m2
09:54 70.3 °F 67.3 °F 29.9 in WSW 0.9 mph 4 mph 90% 0 in 148 W/m2
09:59 70.9 °F 67.5 °F 29.9 in West 0.9 mph 6 mph 89% 0 in 158 W/m2
10:04 71.1 °F 67.6 °F 29.9 in West 2.9 mph 3 mph 89% 0 in 165 W/m2
10:09 71.4 °F 68 °F 29.9 in WSW 0.9 mph 6 mph 89% 0 in 179 W/m2
10:14 71.6 °F 67.8 °F 29.9 in Calm   2 mph 88% 0 in 213 W/m2
10:19 72 °F 68.5 °F 29.9 in East 0.9 mph 2 mph 89% 0 in 250 W/m2
10:24 72.3 °F 68.9 °F 29.9 in ESE 0.9 mph 2 mph 89% 0 in 313 W/m2
10:29 73 °F 69.3 °F 29.9 in Calm   1 mph 88% 0 in 554 W/m2
10:34 73.9 °F 69.1 °F 29.9 in Calm   3 mph 85% 0 in 357 W/m2
10:40 74.8 °F 69.6 °F 29.9 in NW 0.9 mph 1 mph 84% 0 in 371 W/m2
10:45 75.6 °F 69.3 °F 29.9 in North 0.9 mph 2 mph 81% 0 in 768 W/m2
10:50 76.3 °F 68.9 °F 29.9 in Calm   2 mph 78% 0 in 487 W/m2
10:55 76.6 °F 68.2 °F 29.9 in North 0.9 mph 1 mph 75% 0 in 325 W/m2
11:00 77.2 °F 70.2 °F 29.9 in Calm     79% 0 in 506 W/m2
11:05 77.5 °F 69.4 °F 29.9 in Calm   4 mph 76% 0 in 677 W/m2
11:10 78.1 °F 69.4 °F 29.9 in Calm   3 mph 75% 0 in 624 W/m2
11:15 78.6 °F 69.6 °F 29.9 in Calm   3 mph 74% 0 in 622 W/m2
11:20 79.2 °F 69.3 °F 29.9 in Calm   2 mph 72% 0 in 431 W/m2
11:25 79.2 °F 68.5 °F 29.9 in ENE 0.9 mph 4 mph 70% 0 in 684 W/m2
11:30 79.5 °F 70.2 °F 29.9 in SE 2 mph 2 mph 73% 0 in 617 W/m2
11:35 80.1 °F 68.9 °F 29.9 in NE 2 mph 3 mph 69% 0 in 700 W/m2
11:40 80.2 °F 69.1 °F 29.9 in Calm   2 mph 69% 0 in 737 W/m2
11:45 80.8 °F 69.3 °F 29.9 in Calm   3 mph 68% 0 in 780 W/m2
11:50 81.3 °F 69.3 °F 29.9 in Calm   2 mph 67% 0 in 872 W/m2
11:55 82 °F 70.9 °F 29.9 in East 0.9 mph 2 mph 69% 0 in 721 W/m2
12:01 82.2 °F 69.8 °F 29.9 in Calm   1 mph 66% 0 in 316 W/m2
12:06 82.2 °F 69.8 °F 29.9 in ESE 2 mph 2 mph 66% 0 in 327 W/m2
12:11 82.8 °F 69.8 °F 29.9 in WSW 0.9 mph 2 mph 65% 0 in 315 W/m2
12:16 82.9 °F 69.1 °F 29.9 in ESE 0.9 mph 3 mph 63% 0 in 287 W/m2
12:21 83.3 °F 67.5 °F 29.9 in WSW 2 mph 6 mph 59% 0 in 288 W/m2
12:26 83.5 °F 68.5 °F 29.9 in ENE 0.9 mph 3 mph 61% 0 in 346 W/m2
12:31 83.5 °F 66.6 °F 29.9 in WNW 2.9 mph 8 mph 57% 0 in 294 W/m2
12:36 83.5 °F 67.1 °F 29.9 in SW 2 mph 3 mph 58% 0 in 870 W/m2
12:41 83.8 °F 66.9 °F 29.9 in Calm   8 mph 57% 0 in 831 W/m2
12:46 84.7 °F 67.8 °F 29.9 in NE 2 mph 4 mph 57% 0 in 904 W/m2
12:51 85.3 °F 66.7 °F 29.9 in SW 2.9 mph 7 mph 54% 0 in 932 W/m2
12:56 85.3 °F 66.7 °F 29.9 in West 6.9 mph 7 mph 54% 0 in 914 W/m2
13:01 85.5 °F 66.9 °F 29.9 in NNE 0.9 mph 4 mph 54% 0 in 311 W/m2
13:06 85.1 °F 66.6 °F 29.9 in NW 2 mph 7 mph 54% 0 in 963 W/m2
13:11 85.3 °F 66.7 °F 29.9 in NW 0.9 mph 4 mph 54% 0 in 870 W/m2
13:16 85.5 °F 68 °F 29.9 in SW 2.9 mph 6 mph 56% 0 in 798 W/m2
13:21 85.6 °F 65.5 °F 29.9 in WNW 4 mph 5 mph 51% 0 in 791 W/m2
13:26 85.6 °F 64.9 °F 29.9 in WNW 0.9 mph 4 mph 50% 0 in 868 W/m2
13:31 86 °F 65.1 °F 29.9 in West 0.9 mph 5 mph 50% 0 in 881 W/m2
13:36 86.4 °F 64.9 °F 29.9 in West 6 mph 6 mph 49% 0 in 608 W/m2
13:41 86.5 °F 65.7 °F 29.9 in SE 0.9 mph 6 mph 50% 0 in 909 W/m2
13:46 87.1 °F 66.2 °F 29.9 in West 2 mph 6 mph 50% 0 in 911 W/m2
13:51 87.1 °F 66.2 °F 29.9 in West 4 mph 4 mph 50% 0 in 831 W/m2
13:56 87.4 °F 65.3 °F 29.9 in East 2.9 mph 6 mph 48% 0 in 812 W/m2
14:01 88.2 °F 64.8 °F 29.9 in ESE 2.9 mph 4 mph 46% 0 in 837 W/m2
14:06 88.5 °F 66.4 °F 29.9 in WSW 2.9 mph 4 mph 48% 0 in 819 W/m2
14:11 88.5 °F 65.1 °F 29.9 in NW 2 mph 3 mph 46% 0 in 817 W/m2
14:16 88.5 °F 65.7 °F 29.9 in West 2.9 mph 3 mph 47% 0 in 817 W/m2
14:21 88.7 °F 65.8 °F 29.9 in ENE 0.9 mph 2 mph 47% 0 in 816 W/m2
14:32 88.9 °F 66.6 °F 29.9 in North 0.9 mph 2 mph 48% 0 in 802 W/m2
14:37 89.2 °F 66.9 °F 29.9 in WSW 4 mph 9 mph 48% 0 in 805 W/m2
14:42 89.6 °F 67.3 °F 29.9 in WNW 2 mph 5 mph 48% 0 in 803 W/m2
14:47 90.1 °F 67.8 °F 29.9 in NW 4 mph 7 mph 48% 0 in 802 W/m2
14:57 90.3 °F 66.7 °F 29.9 in SSW 0.9 mph 2 mph 46% 0 in 793 W/m2
15:02 90.7 °F 67.6 °F 29.9 in WNW 2 mph 7 mph 47% 0 in 779 W/m2
15:07 90.7 °F 67.1 °F 29.9 in SW 2 mph 3 mph 46% 0 in 798 W/m2
15:12 90.7 °F 67.1 °F 29.9 in North 4.9 mph 5 mph 46% 0 in 775 W/m2
15:17 90.7 °F 66.4 °F 29.9 in WSW 4.9 mph 7 mph 45% 0 in 766 W/m2
15:22 90.3 °F 66.7 °F 29.9 in NE 2 mph 2 mph 46% 0 in 789 W/m2
15:27 90.9 °F 67.3 °F 29.9 in WNW 4.9 mph 10 mph 46% 0 in 789 W/m2
15:32 90.9 °F 67.3 °F 29.9 in WNW 4.9 mph 9 mph 46% 0 in 772 W/m2
15:37 90.7 °F 67.6 °F 29.9 in WSW 0.9 mph 10 mph 47% 0 in 817 W/m2
15:42 91 °F 66.7 °F 29.9 in NE 0.9 mph 3 mph 45% 0 in 817 W/m2
15:47 91 °F 67.5 °F 29.9 in WSW 0.9 mph 6 mph 46% 0 in 816 W/m2
15:52 91.8 °F 66.7 °F 29.9 in North 13 mph 13 mph 44% 0 in 726 W/m2
15:57 91.8 °F 66.7 °F 29.9 in SW 2 mph 9 mph 44% 0 in 555 W/m2
16:02 91.2 °F 67.5 °F 29.9 in WSW 2 mph 2 mph 46% 0 in 712 W/m2
16:07 91.8 °F 67.5 °F 29.9 in WNW 2 mph 4 mph 45% 0 in 747 W/m2
16:12 91.8 °F 66 °F 29.9 in NW 4.9 mph 6 mph 43% 0 in 234 W/m2
16:17 91.2 °F 64.9 °F 29.9 in WNW 0.9 mph 4 mph 42% 0 in 390 W/m2
16:22 91.4 °F 65.1 °F 29.9 in West 4 mph 6 mph 42% 0 in 700 W/m2
16:27 91.8 °F 64 °F 29.9 in West 2 mph 7 mph 40% 0 in 686 W/m2
16:32 92.5 °F 63.9 °F 29.9 in West 6 mph 6 mph 39% 0 in 782 W/m2
16:37 92.5 °F 63.9 °F 29.9 in West 6.9 mph 7 mph 39% 0 in 353 W/m2
16:42 91.9 °F 64.2 °F 29.9 in West 6 mph 6 mph 40% 0 in 341 W/m2
16:47 91.9 °F 64.2 °F 29.9 in WNW 6.9 mph 9 mph 40% 0 in 626 W/m2
16:52 91.9 °F 64.2 °F 29.9 in West 6 mph 9 mph 40% 0 in 601 W/m2
16:57 91.8 °F 64.8 °F 29.9 in WSW 6.9 mph 7 mph 41% 0 in 450 W/m2
17:02 91.6 °F 64.6 °F 29.9 in NW 8.1 mph 9 mph 41% 0 in 645 W/m2
17:07 91.4 °F 63 °F 29.9 in NW 4 mph 11 mph 39% 0 in 742 W/m2
17:12 91.6 °F 63.9 °F 29.9 in West 10.1 mph 10 mph 40% 0 in 596 W/m2
17:17 91.9 °F 63.5 °F 29.9 in WSW 11 mph 11 mph 39% 0 in 715 W/m2
17:22 92.1 °F 63.7 °F 29.9 in West 8.1 mph 10 mph 39% 0 in 552 W/m2
17:27 91.6 °F 63.1 °F 29.9 in NNW 2.9 mph 10 mph 39% 0 in 622 W/m2
17:33 91.2 °F 64.2 °F 29.9 in West 10.1 mph 12 mph 41% 0 in 540 W/m2
17:38 90.3 °F 64.8 °F 29.9 in WSW 8.1 mph 12 mph 43% 0 in 436 W/m2
17:43 89.8 °F 64.9 °F 29.9 in NW 8.9 mph 11 mph 44% 0 in 316 W/m2
17:48 88.9 °F 64.2 °F 29.9 in WNW 6.9 mph 8 mph 44% 0 in 325 W/m2
17:53 88.2 °F 64.8 °F 29.9 in West 6 mph 15 mph 46% 0 in 186 W/m2
17:58 87.6 °F 64.2 °F 29.9 in NW 2.9 mph 7 mph 46% 0 in 163 W/m2
18:03 87.3 °F 64.6 °F 29.9 in WNW 8.9 mph 11 mph 47% 0 in 192 W/m2
18:08 86.5 °F 64.6 °F 29.9 in NNW 6 mph 13 mph 48% 0 in 151 W/m2
18:13 86 °F 64 °F 29.9 in West 8.1 mph 8 mph 48% 0 in 134 W/m2
18:18 85.6 °F 63.7 °F 29.9 in WNW 11 mph 11 mph 48% 0 in 141 W/m2
18:23 85.5 °F 63.5 °F 29.9 in West 6 mph 8 mph 48% 0 in 155 W/m2
18:28 85.5 °F 63.5 °F 29.9 in NW 8.1 mph 12 mph 48% 0 in 320 W/m2
18:33 85.8 °F 63.9 °F 29.9 in West 8.1 mph 10 mph 48% 0 in 459 W/m2
18:38 86.7 °F 64.8 °F 29.9 in WNW 4.9 mph 12 mph 48% 0 in 464 W/m2
18:43 86.7 °F 64 °F 29.9 in West 10.1 mph 14 mph 47% 0 in 244 W/m2
18:48 86.2 °F 64.2 °F 29.9 in WSW 8.1 mph 8 mph 48% 0 in 262 W/m2
18:53 86.2 °F 64.2 °F 29.9 in WSW 8.9 mph 12 mph 48% 0 in 403 W/m2
18:58 86.5 °F 63.9 °F 29.9 in WNW 4 mph 8 mph 47% 0 in 359 W/m2
19:03 86.9 °F 64.2 °F 29.9 in WSW 12.1 mph 12 mph 47% 0 in 339 W/m2
19:08 86.7 °F 64 °F 29.9 in WNW 4.9 mph 8 mph 47% 0 in 313 W/m2
19:13 86.5 °F 64.6 °F 29.9 in NW 4 mph 10 mph 48% 0 in 250 W/m2
19:18 86.2 °F 64.2 °F 29.9 in WNW 6.9 mph 11 mph 48% 0 in 197 W/m2
19:23 85.6 °F 64.2 °F 29.9 in NW 4.9 mph 10 mph 49% 0 in 165 W/m2
19:28 85.3 °F 64 °F 29.9 in WNW 6.9 mph 12 mph 49% 0 in 90 W/m2
19:33 84.6 °F 63.9 °F 29.9 in NW 4 mph 9 mph 50% 0 in 84 W/m2
19:38 84 °F 63.9 °F 29.9 in WSW 2 mph 8 mph 51% 0 in 109 W/m2
19:43 83.7 °F 63.7 °F 29.9 in West 6.9 mph 11 mph 51% 0 in 49 W/m2
19:48 83.1 °F 63.7 °F 29.9 in WNW 4 mph 7 mph 52% 0 in 49 W/m2
19:53 82.8 °F 63.3 °F 29.9 in SW 2.9 mph 11 mph 52% 0 in 49 W/m2
19:58 82.4 °F 62.4 °F 29.9 in West 2.9 mph 4 mph 51% 0 in 49 W/m2
20:03 82 °F 61 °F 29.9 in West 2 mph 6 mph 49% 0 in 46 W/m2
20:08 81.9 °F 61.3 °F 29.9 in WNW 2 mph 3 mph 50% 0 in 39 W/m2
20:13 81.5 °F 61.7 °F 29.9 in NW 2 mph 4 mph 51% 0 in 42 W/m2
20:18 81.3 °F 62.1 °F 29.9 in SSW 0.9 mph 3 mph 52% 0 in 40 W/m2
20:23 81 °F 61.7 °F 29.9 in SW 0.9 mph 1 mph 52% 0 in 19 W/m2
20:28 81 °F 62.8 °F 29.9 in Calm   1 mph 54% 0 in 12 W/m2
20:33 80.4 °F 62.8 °F 29.9 in WNW 2 mph 7 mph 55% 0 in 7 W/m2
20:38 80.2 °F 63.1 °F 29.9 in WNW 4.9 mph 8 mph 56% 0 in 7 W/m2
20:44 80.1 °F 63.5 °F 29.9 in West 4 mph 9 mph 57% 0 in 5 W/m2
20:49 79.9 °F 63.3 °F 29.9 in NW 2 mph 8 mph 57% 0 in 0 W/m2
20:54 79.9 °F 63.9 °F 29.9 in West 2.9 mph 6 mph 58% 0 in 0 W/m2
20:59 79.5 °F 63.9 °F 29.9 in West 0.9 mph 6 mph 59% 0 in 0 W/m2
21:04 79.3 °F 63.7 °F 29.9 in WSW 2.9 mph 7 mph 59% 0 in 0 W/m2
21:09 79.2 °F 64 °F 29.9 in NW 2 mph 3 mph 60% 0 in 0 W/m2
21:14 79 °F 64.4 °F 29.9 in WNW 2 mph 4 mph 61% 0 in 0 W/m2
21:19 79 °F 64.4 °F 29.9 in West 2.9 mph 4 mph 61% 0 in 0 W/m2
21:24 79 °F 64.4 °F 29.9 in WSW 6.9 mph 8 mph 61% 0 in 0 W/m2
21:29 79 °F 63.9 °F 29.9 in WNW 4.9 mph 8 mph 60% 0 in 0 W/m2
21:34 78.8 °F 63.7 °F 29.9 in West 2.9 mph 8 mph 60% 0 in 0 W/m2
21:39 78.6 °F 64 °F 29.9 in WNW 4.9 mph 6 mph 61% 0 in 0 W/m2
21:44 78.4 °F 63.9 °F 29.9 in WSW 6.9 mph 8 mph 61% 0 in 0 W/m2
21:49 78.3 °F 64.2 °F 29.9 in West 6 mph 7 mph 62% 0 in 0 W/m2
21:54 78.1 °F 64 °F 29.9 in West 2 mph 5 mph 62% 0 in 0 W/m2
21:59 78.1 °F 64.4 °F 29.9 in West 4 mph 8 mph 63% 0 in 0 W/m2
22:04 77.7 °F 64 °F 29.9 in WNW 2 mph 5 mph 63% 0 in 0 W/m2
22:09 77.7 °F 64 °F 29.9 in NW 2.9 mph 6 mph 63% 0 in 0 W/m2
22:14 77.5 °F 63.9 °F 29.9 in NW 4 mph 8 mph 63% 0 in 0 W/m2
22:19 77.5 °F 63.9 °F 29.9 in West 4 mph 8 mph 63% 0 in 0 W/m2
22:24 77.4 °F 63.3 °F 29.9 in West 2.9 mph 7 mph 62% 0 in 0 W/m2
22:29 77.2 °F 63.1 °F 29.9 in West 6.9 mph 7 mph 62% 0 in 0 W/m2
22:35 77.2 °F 63.1 °F 29.9 in West 2.9 mph 6 mph 62% 0 in 0 W/m2
22:40 76.8 °F 62.8 °F 29.9 in West 2 mph 7 mph 62% 0 in 0 W/m2
22:45 76.6 °F 62.6 °F 29.9 in West 6 mph 6 mph 62% 0 in 0 W/m2
22:50 76.6 °F 62.6 °F 29.9 in West 6 mph 6 mph 62% 0 in 0 W/m2
22:55 76.5 °F 62.4 °F 29.9 in NW 2.9 mph 7 mph 62% 0 in 0 W/m2
23:00 76.3 °F 62.2 °F 29.9 in WNW 2 mph 7 mph 62% 0 in 0 W/m2
23:05 76.1 °F 62.6 °F 29.9 in WNW 4 mph 9 mph 63% 0 in 0 W/m2
23:10 75.9 °F 62.4 °F 29.9 in West 4 mph 6 mph 63% 0 in 0 W/m2
23:15 75.7 °F 62.2 °F 29.9 in West 6 mph 7 mph 63% 0 in 0 W/m2
23:20 75.6 °F 62.1 °F 29.9 in West 6.9 mph 7 mph 63% 0 in 0 W/m2
23:25 75.4 °F 62.4 °F 29.9 in West 2.9 mph 4 mph 64% 0 in 0 W/m2
23:30 75 °F 62.1 °F 29.9 in WNW 4 mph 6 mph 64% 0 in 0 W/m2
23:35 75 °F 62.1 °F 29.9 in WSW 8.1 mph 8 mph 64% 0 in 0 W/m2
23:40 74.8 °F 62.2 °F 29.9 in WNW 6.9 mph 8 mph 65% 0 in 0 W/m2
23:45 75 °F 62.4 °F 29.9 in West 6 mph 9 mph 65% 0 in 0 W/m2
23:50 75 °F 62.4 °F 29.9 in WSW 6.9 mph 7 mph 65% 0 in 0 W/m2
23:55 74.8 °F 62.2 °F 29.9 in West 2 mph 10 mph 65% 0 in 0 W/m2
Juneau County Weather
Compliments of Weather Underground - 4 mb